sensor_id;sensor_type;location;lat;lon;timestamp;temperature;humidity
21167;DHT22;10741;52.272;9.580;2023-06-22T00:00:43;18.90;99.90
21167;DHT22;10741;52.272;9.580;2023-06-22T00:03:10;18.90;99.90
21167;DHT22;10741;52.272;9.580;2023-06-22T00:05:35;18.90;99.90
21167;DHT22;10741;52.272;9.580;2023-06-22T00:08:04;18.90;99.90
21167;DHT22;10741;52.272;9.580;2023-06-22T00:10:30;18.80;99.90
21167;DHT22;10741;52.272;9.580;2023-06-22T00:12:56;18.70;99.90
21167;DHT22;10741;52.272;9.580;2023-06-22T00:15:22;18.60;99.90
21167;DHT22;10741;52.272;9.580;2023-06-22T00:17:48;18.60;99.90
21167;DHT22;10741;52.272;9.580;2023-06-22T00:20:14;18.60;99.90
21167;DHT22;10741;52.272;9.580;2023-06-22T00:22:40;18.50;99.90
21167;DHT22;10741;52.272;9.580;2023-06-22T00:25:09;18.40;99.90
21167;DHT22;10741;52.272;9.580;2023-06-22T00:27:35;18.40;99.90
21167;DHT22;10741;52.272;9.580;2023-06-22T00:30:01;18.40;99.90
21167;DHT22;10741;52.272;9.580;2023-06-22T00:32:27;18.40;99.90
21167;DHT22;10741;52.272;9.580;2023-06-22T00:34:53;18.40;99.90
21167;DHT22;10741;52.272;9.580;2023-06-22T00:37:19;18.30;99.90
21167;DHT22;10741;52.272;9.580;2023-06-22T00:39:44;18.30;99.90
21167;DHT22;10741;52.272;9.580;2023-06-22T00:42:10;18.30;99.90
21167;DHT22;10741;52.272;9.580;2023-06-22T00:44:36;18.30;99.90
21167;DHT22;10741;52.272;9.580;2023-06-22T00:47:03;18.30;99.90
21167;DHT22;10741;52.272;9.580;2023-06-22T00:49:29;18.30;99.90
21167;DHT22;10741;52.272;9.580;2023-06-22T00:51:56;18.30;99.90
21167;DHT22;10741;52.272;9.580;2023-06-22T00:54:22;18.30;99.90
21167;DHT22;10741;52.272;9.580;2023-06-22T00:56:53;18.30;99.90
21167;DHT22;10741;52.272;9.580;2023-06-22T00:59:23;18.30;99.90
21167;DHT22;10741;52.272;9.580;2023-06-22T01:01:51;18.20;99.90
21167;DHT22;10741;52.272;9.580;2023-06-22T01:04:17;18.20;99.90
21167;DHT22;10741;52.272;9.580;2023-06-22T01:07:05;18.10;99.90
21167;DHT22;10741;52.272;9.580;2023-06-22T01:09:36;18.10;99.90
21167;DHT22;10741;52.272;9.580;2023-06-22T01:12:06;18.10;99.90
21167;DHT22;10741;52.272;9.580;2023-06-22T01:14:41;17.90;99.90
21167;DHT22;10741;52.272;9.580;2023-06-22T01:17:08;17.90;99.90
21167;DHT22;10741;52.272;9.580;2023-06-22T01:19:46;17.80;99.90
21167;DHT22;10741;52.272;9.580;2023-06-22T01:22:15;17.70;99.90
21167;DHT22;10741;52.272;9.580;2023-06-22T01:27:28;17.70;99.90
21167;DHT22;10741;52.272;9.580;2023-06-22T01:29:59;17.80;99.90
21167;DHT22;10741;52.272;9.580;2023-06-22T01:32:33;17.80;99.90
21167;DHT22;10741;52.272;9.580;2023-06-22T01:35:01;17.70;99.90
21167;DHT22;10741;52.272;9.580;2023-06-22T01:37:29;17.80;99.90
21167;DHT22;10741;52.272;9.580;2023-06-22T01:39:58;17.80;99.90
21167;DHT22;10741;52.272;9.580;2023-06-22T01:42:25;17.80;99.90
21167;DHT22;10741;52.272;9.580;2023-06-22T01:44:55;17.80;99.90
21167;DHT22;10741;52.272;9.580;2023-06-22T01:47:25;17.80;99.90
21167;DHT22;10741;52.272;9.580;2023-06-22T01:49:51;17.70;99.90
21167;DHT22;10741;52.272;9.580;2023-06-22T01:52:18;17.70;99.90
21167;DHT22;10741;52.272;9.580;2023-06-22T01:54:44;17.70;99.90
21167;DHT22;10741;52.272;9.580;2023-06-22T01:57:10;17.80;99.90
21167;DHT22;10741;52.272;9.580;2023-06-22T01:59:46;17.70;99.90
21167;DHT22;10741;52.272;9.580;2023-06-22T02:02:16;17.60;99.90
21167;DHT22;10741;52.272;9.580;2023-06-22T02:04:57;17.60;99.90
21167;DHT22;10741;52.272;9.580;2023-06-22T02:07:32;17.60;99.90
21167;DHT22;10741;52.272;9.580;2023-06-22T02:10:02;17.60;99.90
21167;DHT22;10741;52.272;9.580;2023-06-22T02:12:28;17.60;99.90
21167;DHT22;10741;52.272;9.580;2023-06-22T02:14:54;17.70;99.90
21167;DHT22;10741;52.272;9.580;2023-06-22T02:17:21;17.60;99.90
21167;DHT22;10741;52.272;9.580;2023-06-22T02:19:47;17.60;99.90
21167;DHT22;10741;52.272;9.580;2023-06-22T02:22:13;17.50;99.90
21167;DHT22;10741;52.272;9.580;2023-06-22T02:24:39;17.50;99.90
21167;DHT22;10741;52.272;9.580;2023-06-22T02:27:05;17.40;99.90
21167;DHT22;10741;52.272;9.580;2023-06-22T02:29:32;17.40;99.90
21167;DHT22;10741;52.272;9.580;2023-06-22T02:31:58;17.40;99.90
21167;DHT22;10741;52.272;9.580;2023-06-22T02:34:25;17.30;99.90
21167;DHT22;10741;52.272;9.580;2023-06-22T02:36:51;17.30;99.90
21167;DHT22;10741;52.272;9.580;2023-06-22T02:39:24;17.40;99.90
21167;DHT22;10741;52.272;9.580;2023-06-22T02:41:54;17.30;99.90
21167;DHT22;10741;52.272;9.580;2023-06-22T02:44:20;17.30;99.90
21167;DHT22;10741;52.272;9.580;2023-06-22T02:46:47;17.20;99.90
21167;DHT22;10741;52.272;9.580;2023-06-22T02:49:13;17.20;99.90
21167;DHT22;10741;52.272;9.580;2023-06-22T02:51:41;17.20;99.90
21167;DHT22;10741;52.272;9.580;2023-06-22T02:54:07;17.10;99.90
21167;DHT22;10741;52.272;9.580;2023-06-22T02:56:33;17.10;99.90
21167;DHT22;10741;52.272;9.580;2023-06-22T02:58:59;17.10;99.90
21167;DHT22;10741;52.272;9.580;2023-06-22T03:01:29;17.10;99.90
21167;DHT22;10741;52.272;9.580;2023-06-22T03:03:59;17.10;99.90
21167;DHT22;10741;52.272;9.580;2023-06-22T03:06:24;17.10;99.90
21167;DHT22;10741;52.272;9.580;2023-06-22T03:09:04;17.20;99.90
21167;DHT22;10741;52.272;9.580;2023-06-22T03:11:31;17.20;99.90
21167;DHT22;10741;52.272;9.580;2023-06-22T03:13:57;17.20;99.90
21167;DHT22;10741;52.272;9.580;2023-06-22T03:16:23;17.20;99.90
21167;DHT22;10741;52.272;9.580;2023-06-22T03:18:48;17.20;99.90
21167;DHT22;10741;52.272;9.580;2023-06-22T03:21:14;17.20;99.90
21167;DHT22;10741;52.272;9.580;2023-06-22T03:23:41;17.20;99.90
21167;DHT22;10741;52.272;9.580;2023-06-22T03:26:09;17.20;99.90
21167;DHT22;10741;52.272;9.580;2023-06-22T03:28:35;17.20;99.90
21167;DHT22;10741;52.272;9.580;2023-06-22T03:31:01;17.20;99.90
21167;DHT22;10741;52.272;9.580;2023-06-22T03:33:26;17.10;99.90
21167;DHT22;10741;52.272;9.580;2023-06-22T03:35:52;17.20;99.90
21167;DHT22;10741;52.272;9.580;2023-06-22T03:38:19;17.20;99.90
21167;DHT22;10741;52.272;9.580;2023-06-22T03:40:45;17.30;99.90
21167;DHT22;10741;52.272;9.580;2023-06-22T03:43:10;17.40;99.90
21167;DHT22;10741;52.272;9.580;2023-06-22T03:45:36;17.40;99.90
21167;DHT22;10741;52.272;9.580;2023-06-22T03:48:02;17.50;99.90
21167;DHT22;10741;52.272;9.580;2023-06-22T03:50:28;17.60;99.90
21167;DHT22;10741;52.272;9.580;2023-06-22T03:52:55;17.60;99.90
21167;DHT22;10741;52.272;9.580;2023-06-22T03:55:21;17.70;99.90
21167;DHT22;10741;52.272;9.580;2023-06-22T03:57:46;17.70;99.90
21167;DHT22;10741;52.272;9.580;2023-06-22T04:00:13;17.80;99.90
21167;DHT22;10741;52.272;9.580;2023-06-22T04:02:39;17.80;99.90
21167;DHT22;10741;52.272;9.580;2023-06-22T04:05:05;17.80;99.90
21167;DHT22;10741;52.272;9.580;2023-06-22T04:07:31;17.90;99.90
21167;DHT22;10741;52.272;9.580;2023-06-22T04:09:56;17.90;99.90
21167;DHT22;10741;52.272;9.580;2023-06-22T04:12:22;17.90;99.90
21167;DHT22;10741;52.272;9.580;2023-06-22T04:14:48;18.00;99.90
21167;DHT22;10741;52.272;9.580;2023-06-22T04:17:13;18.00;99.90
21167;DHT22;10741;52.272;9.580;2023-06-22T04:19:40;18.10;99.90
21167;DHT22;10741;52.272;9.580;2023-06-22T04:22:07;18.00;99.90
21167;DHT22;10741;52.272;9.580;2023-06-22T04:24:33;18.10;99.90
21167;DHT22;10741;52.272;9.580;2023-06-22T04:26:59;18.10;99.90
21167;DHT22;10741;52.272;9.580;2023-06-22T04:29:28;18.20;99.90
21167;DHT22;10741;52.272;9.580;2023-06-22T04:31:56;18.20;99.90
21167;DHT22;10741;52.272;9.580;2023-06-22T04:34:24;18.30;99.90
21167;DHT22;10741;52.272;9.580;2023-06-22T04:36:53;18.30;99.90
21167;DHT22;10741;52.272;9.580;2023-06-22T04:39:19;18.30;99.90
21167;DHT22;10741;52.272;9.580;2023-06-22T04:41:45;18.40;99.90
21167;DHT22;10741;52.272;9.580;2023-06-22T04:44:15;18.40;99.90
21167;DHT22;10741;52.272;9.580;2023-06-22T04:46:51;18.50;99.90
21167;DHT22;10741;52.272;9.580;2023-06-22T04:49:26;18.60;99.90
21167;DHT22;10741;52.272;9.580;2023-06-22T04:51:58;18.60;99.90
21167;DHT22;10741;52.272;9.580;2023-06-22T04:54:24;18.80;99.90
21167;DHT22;10741;52.272;9.580;2023-06-22T04:56:50;18.90;99.90
21167;DHT22;10741;52.272;9.580;2023-06-22T04:59:23;19.00;99.90
21167;DHT22;10741;52.272;9.580;2023-06-22T05:01:55;19.10;99.90
21167;DHT22;10741;52.272;9.580;2023-06-22T05:04:22;19.20;99.90
21167;DHT22;10741;52.272;9.580;2023-06-22T05:06:49;19.40;99.90
21167;DHT22;10741;52.272;9.580;2023-06-22T05:09:15;19.50;99.90
21167;DHT22;10741;52.272;9.580;2023-06-22T05:11:40;19.60;99.90
21167;DHT22;10741;52.272;9.580;2023-06-22T05:14:06;19.70;99.90
21167;DHT22;10741;52.272;9.580;2023-06-22T05:16:33;19.80;99.90
21167;DHT22;10741;52.272;9.580;2023-06-22T05:18:58;19.90;99.90
21167;DHT22;10741;52.272;9.580;2023-06-22T05:21:26;19.90;99.90
21167;DHT22;10741;52.272;9.580;2023-06-22T05:23:52;20.00;99.90
21167;DHT22;10741;52.272;9.580;2023-06-22T05:26:20;20.10;99.90
21167;DHT22;10741;52.272;9.580;2023-06-22T05:28:46;20.30;99.90
21167;DHT22;10741;52.272;9.580;2023-06-22T05:31:16;20.30;99.90
21167;DHT22;10741;52.272;9.580;2023-06-22T05:33:43;20.30;99.90
21167;DHT22;10741;52.272;9.580;2023-06-22T05:36:09;20.20;99.90
21167;DHT22;10741;52.272;9.580;2023-06-22T05:38:36;20.20;99.90
21167;DHT22;10741;52.272;9.580;2023-06-22T05:41:02;20.10;99.90
21167;DHT22;10741;52.272;9.580;2023-06-22T05:43:28;20.20;99.90
21167;DHT22;10741;52.272;9.580;2023-06-22T05:45:54;20.40;99.90
21167;DHT22;10741;52.272;9.580;2023-06-22T05:48:20;20.40;99.90
21167;DHT22;10741;52.272;9.580;2023-06-22T05:50:45;20.40;99.90
21167;DHT22;10741;52.272;9.580;2023-06-22T05:53:11;20.40;99.90
21167;DHT22;10741;52.272;9.580;2023-06-22T05:55:37;20.40;99.90
21167;DHT22;10741;52.272;9.580;2023-06-22T05:58:03;20.40;99.90
21167;DHT22;10741;52.272;9.580;2023-06-22T06:00:29;20.40;99.90
21167;DHT22;10741;52.272;9.580;2023-06-22T06:02:55;20.50;99.90
21167;DHT22;10741;52.272;9.580;2023-06-22T06:05:21;20.60;99.90
21167;DHT22;10741;52.272;9.580;2023-06-22T06:07:54;20.70;99.90
21167;DHT22;10741;52.272;9.580;2023-06-22T06:10:20;20.90;99.90
21167;DHT22;10741;52.272;9.580;2023-06-22T06:12:47;21.10;99.90
21167;DHT22;10741;52.272;9.580;2023-06-22T06:15:12;21.30;99.90
21167;DHT22;10741;52.272;9.580;2023-06-22T06:17:49;21.60;99.90
21167;DHT22;10741;52.272;9.580;2023-06-22T06:20:21;21.70;99.90
21167;DHT22;10741;52.272;9.580;2023-06-22T06:22:48;21.80;99.90
21167;DHT22;10741;52.272;9.580;2023-06-22T06:25:14;21.90;99.90
21167;DHT22;10741;52.272;9.580;2023-06-22T06:27:49;22.00;99.90
21167;DHT22;10741;52.272;9.580;2023-06-22T06:30:17;22.00;99.90
21167;DHT22;10741;52.272;9.580;2023-06-22T06:32:44;22.00;99.90
21167;DHT22;10741;52.272;9.580;2023-06-22T06:35:12;22.10;99.90
21167;DHT22;10741;52.272;9.580;2023-06-22T06:37:42;22.20;99.90
21167;DHT22;10741;52.272;9.580;2023-06-22T06:40:10;22.30;99.90
21167;DHT22;10741;52.272;9.580;2023-06-22T06:42:40;22.30;99.90
21167;DHT22;10741;52.272;9.580;2023-06-22T06:45:11;22.30;99.90
21167;DHT22;10741;52.272;9.580;2023-06-22T06:47:36;22.20;99.90
21167;DHT22;10741;52.272;9.580;2023-06-22T06:50:04;22.10;99.90
21167;DHT22;10741;52.272;9.580;2023-06-22T06:52:30;22.00;99.90
21167;DHT22;10741;52.272;9.580;2023-06-22T06:54:56;22.00;99.90
21167;DHT22;10741;52.272;9.580;2023-06-22T06:57:22;22.00;99.90
21167;DHT22;10741;52.272;9.580;2023-06-22T06:59:48;21.90;99.90
21167;DHT22;10741;52.272;9.580;2023-06-22T07:02:15;21.80;99.90
21167;DHT22;10741;52.272;9.580;2023-06-22T07:04:41;21.70;99.90
21167;DHT22;10741;52.272;9.580;2023-06-22T07:07:07;21.70;99.90
21167;DHT22;10741;52.272;9.580;2023-06-22T07:09:33;21.70;99.90
21167;DHT22;10741;52.272;9.580;2023-06-22T07:11:58;21.80;99.90
21167;DHT22;10741;52.272;9.580;2023-06-22T07:14:24;22.00;99.90
21167;DHT22;10741;52.272;9.580;2023-06-22T07:16:50;22.10;99.90
21167;DHT22;10741;52.272;9.580;2023-06-22T07:19:15;22.00;99.90
21167;DHT22;10741;52.272;9.580;2023-06-22T07:21:41;22.10;99.90
21167;DHT22;10741;52.272;9.580;2023-06-22T07:24:07;22.10;99.90
21167;DHT22;10741;52.272;9.580;2023-06-22T07:26:33;22.10;99.90
21167;DHT22;10741;52.272;9.580;2023-06-22T07:28:59;22.10;99.90
21167;DHT22;10741;52.272;9.580;2023-06-22T07:31:26;22.20;99.90
21167;DHT22;10741;52.272;9.580;2023-06-22T07:33:51;22.20;99.90
21167;DHT22;10741;52.272;9.580;2023-06-22T07:36:18;22.20;99.90
21167;DHT22;10741;52.272;9.580;2023-06-22T07:38:44;22.20;99.90
21167;DHT22;10741;52.272;9.580;2023-06-22T07:41:09;22.10;99.90
21167;DHT22;10741;52.272;9.580;2023-06-22T07:43:35;22.10;99.90
21167;DHT22;10741;52.272;9.580;2023-06-22T07:46:06;22.10;99.90
21167;DHT22;10741;52.272;9.580;2023-06-22T07:48:32;22.20;99.90
21167;DHT22;10741;52.272;9.580;2023-06-22T07:50:58;22.20;99.90
21167;DHT22;10741;52.272;9.580;2023-06-22T07:53:23;22.20;99.90
21167;DHT22;10741;52.272;9.580;2023-06-22T07:55:50;22.30;99.90
21167;DHT22;10741;52.272;9.580;2023-06-22T07:58:16;22.30;99.90
21167;DHT22;10741;52.272;9.580;2023-06-22T08:00:44;22.30;99.90
21167;DHT22;10741;52.272;9.580;2023-06-22T08:03:10;22.40;99.90
21167;DHT22;10741;52.272;9.580;2023-06-22T08:05:36;22.50;99.90
21167;DHT22;10741;52.272;9.580;2023-06-22T08:08:01;22.60;99.90
21167;DHT22;10741;52.272;9.580;2023-06-22T08:10:27;22.60;99.90
21167;DHT22;10741;52.272;9.580;2023-06-22T08:12:53;22.60;99.90
21167;DHT22;10741;52.272;9.580;2023-06-22T08:15:19;22.60;99.90
21167;DHT22;10741;52.272;9.580;2023-06-22T08:17:45;22.70;99.90
21167;DHT22;10741;52.272;9.580;2023-06-22T08:20:13;22.70;99.90
21167;DHT22;10741;52.272;9.580;2023-06-22T08:22:40;22.60;99.90
21167;DHT22;10741;52.272;9.580;2023-06-22T08:25:07;22.70;99.90
21167;DHT22;10741;52.272;9.580;2023-06-22T08:27:33;22.70;99.90
21167;DHT22;10741;52.272;9.580;2023-06-22T08:29:59;22.80;99.90
21167;DHT22;10741;52.272;9.580;2023-06-22T08:32:29;22.90;99.90
21167;DHT22;10741;52.272;9.580;2023-06-22T08:34:56;23.00;99.90
21167;DHT22;10741;52.272;9.580;2023-06-22T08:37:22;23.00;99.90
21167;DHT22;10741;52.272;9.580;2023-06-22T08:40:00;23.00;99.90
21167;DHT22;10741;52.272;9.580;2023-06-22T08:42:27;22.90;99.90
21167;DHT22;10741;52.272;9.580;2023-06-22T08:44:53;22.90;99.90
21167;DHT22;10741;52.272;9.580;2023-06-22T08:47:19;23.00;99.90
21167;DHT22;10741;52.272;9.580;2023-06-22T08:49:45;22.90;99.90
21167;DHT22;10741;52.272;9.580;2023-06-22T08:52:11;23.00;99.90
21167;DHT22;10741;52.272;9.580;2023-06-22T08:54:37;23.20;99.90
21167;DHT22;10741;52.272;9.580;2023-06-22T08:57:03;23.30;99.90
21167;DHT22;10741;52.272;9.580;2023-06-22T08:59:29;23.40;99.90
21167;DHT22;10741;52.272;9.580;2023-06-22T09:01:54;23.40;99.90
21167;DHT22;10741;52.272;9.580;2023-06-22T09:04:20;23.40;99.90
21167;DHT22;10741;52.272;9.580;2023-06-22T09:06:48;23.40;99.90
21167;DHT22;10741;52.272;9.580;2023-06-22T09:09:16;23.40;99.90
21167;DHT22;10741;52.272;9.580;2023-06-22T09:11:42;23.40;99.90
21167;DHT22;10741;52.272;9.580;2023-06-22T09:14:08;23.60;99.90
21167;DHT22;10741;52.272;9.580;2023-06-22T09:16:34;23.70;99.90
21167;DHT22;10741;52.272;9.580;2023-06-22T09:19:00;23.70;99.90
21167;DHT22;10741;52.272;9.580;2023-06-22T09:21:26;23.70;99.90
21167;DHT22;10741;52.272;9.580;2023-06-22T09:23:52;23.70;99.90
21167;DHT22;10741;52.272;9.580;2023-06-22T09:26:18;23.60;99.90
21167;DHT22;10741;52.272;9.580;2023-06-22T09:28:44;23.70;99.90
21167;DHT22;10741;52.272;9.580;2023-06-22T09:31:10;23.90;99.90
21167;DHT22;10741;52.272;9.580;2023-06-22T09:33:36;23.90;99.90
21167;DHT22;10741;52.272;9.580;2023-06-22T09:36:05;23.90;99.90
21167;DHT22;10741;52.272;9.580;2023-06-22T09:38:35;24.00;99.90
21167;DHT22;10741;52.272;9.580;2023-06-22T09:41:01;24.10;99.90
21167;DHT22;10741;52.272;9.580;2023-06-22T09:43:27;24.20;99.90
21167;DHT22;10741;52.272;9.580;2023-06-22T09:45:53;24.00;99.90
21167;DHT22;10741;52.272;9.580;2023-06-22T09:48:19;24.10;99.90
21167;DHT22;10741;52.272;9.580;2023-06-22T09:50:44;24.10;99.90
21167;DHT22;10741;52.272;9.580;2023-06-22T09:53:10;24.20;99.90
21167;DHT22;10741;52.272;9.580;2023-06-22T09:55:36;24.30;99.90
21167;DHT22;10741;52.272;9.580;2023-06-22T09:58:02;24.20;99.90
21167;DHT22;10741;52.272;9.580;2023-06-22T10:00:27;24.20;99.90
21167;DHT22;10741;52.272;9.580;2023-06-22T10:02:53;24.20;99.90
21167;DHT22;10741;52.272;9.580;2023-06-22T10:05:19;24.10;99.90
21167;DHT22;10741;52.272;9.580;2023-06-22T10:07:45;23.90;99.90
21167;DHT22;10741;52.272;9.580;2023-06-22T10:10:11;23.80;99.90
21167;DHT22;10741;52.272;9.580;2023-06-22T10:12:48;23.80;99.90
21167;DHT22;10741;52.272;9.580;2023-06-22T10:15:19;23.80;99.90
21167;DHT22;10741;52.272;9.580;2023-06-22T10:17:46;23.60;99.90
21167;DHT22;10741;52.272;9.580;2023-06-22T10:20:13;23.60;99.90
21167;DHT22;10741;52.272;9.580;2023-06-22T10:22:40;23.60;99.90
21167;DHT22;10741;52.272;9.580;2023-06-22T10:25:07;23.60;99.90
21167;DHT22;10741;52.272;9.580;2023-06-22T10:27:33;23.60;99.90
21167;DHT22;10741;52.272;9.580;2023-06-22T10:29:59;23.60;99.90
21167;DHT22;10741;52.272;9.580;2023-06-22T10:32:24;23.60;99.90
21167;DHT22;10741;52.272;9.580;2023-06-22T10:34:50;23.70;99.90
21167;DHT22;10741;52.272;9.580;2023-06-22T10:37:16;23.80;99.90
21167;DHT22;10741;52.272;9.580;2023-06-22T10:39:41;23.80;99.90
21167;DHT22;10741;52.272;9.580;2023-06-22T10:42:07;23.90;99.90
21167;DHT22;10741;52.272;9.580;2023-06-22T10:44:33;24.00;99.90
21167;DHT22;10741;52.272;9.580;2023-06-22T10:46:59;24.00;99.90
21167;DHT22;10741;52.272;9.580;2023-06-22T10:49:24;24.00;99.90
21167;DHT22;10741;52.272;9.580;2023-06-22T10:51:50;24.00;99.90
21167;DHT22;10741;52.272;9.580;2023-06-22T10:54:16;24.10;99.90
21167;DHT22;10741;52.272;9.580;2023-06-22T10:56:44;24.10;99.90
21167;DHT22;10741;52.272;9.580;2023-06-22T10:59:13;24.40;99.90
21167;DHT22;10741;52.272;9.580;2023-06-22T11:01:38;24.60;99.90
21167;DHT22;10741;52.272;9.580;2023-06-22T11:04:04;24.70;99.90
21167;DHT22;10741;52.272;9.580;2023-06-22T11:06:30;24.60;99.90
21167;DHT22;10741;52.272;9.580;2023-06-22T11:08:56;24.70;99.90
21167;DHT22;10741;52.272;9.580;2023-06-22T11:11:21;24.80;99.90
21167;DHT22;10741;52.272;9.580;2023-06-22T11:13:47;24.80;99.90
21167;DHT22;10741;52.272;9.580;2023-06-22T11:16:13;24.70;99.90
21167;DHT22;10741;52.272;9.580;2023-06-22T11:18:42;24.80;99.90
21167;DHT22;10741;52.272;9.580;2023-06-22T11:21:07;24.90;99.90
21167;DHT22;10741;52.272;9.580;2023-06-22T11:23:33;25.10;99.90
21167;DHT22;10741;52.272;9.580;2023-06-22T11:25:59;25.20;99.90
21167;DHT22;10741;52.272;9.580;2023-06-22T11:28:24;25.40;99.90
21167;DHT22;10741;52.272;9.580;2023-06-22T11:30:51;26.40;99.90
21167;DHT22;10741;52.272;9.580;2023-06-22T11:33:16;27.40;99.90
21167;DHT22;10741;52.272;9.580;2023-06-22T11:35:42;27.80;99.90
21167;DHT22;10741;52.272;9.580;2023-06-22T11:38:08;28.50;99.90
21167;DHT22;10741;52.272;9.580;2023-06-22T11:40:34;28.90;99.90
21167;DHT22;10741;52.272;9.580;2023-06-22T11:42:59;28.90;99.90
21167;DHT22;10741;52.272;9.580;2023-06-22T11:45:25;29.00;99.90
21167;DHT22;10741;52.272;9.580;2023-06-22T11:47:51;29.40;99.90
21167;DHT22;10741;52.272;9.580;2023-06-22T11:50:17;29.40;99.90
21167;DHT22;10741;52.272;9.580;2023-06-22T11:52:42;29.30;99.90
21167;DHT22;10741;52.272;9.580;2023-06-22T11:55:08;28.80;99.90
21167;DHT22;10741;52.272;9.580;2023-06-22T11:57:36;28.50;99.90
21167;DHT22;10741;52.272;9.580;2023-06-22T12:00:03;28.40;99.90
21167;DHT22;10741;52.272;9.580;2023-06-22T12:02:39;28.00;99.90
21167;DHT22;10741;52.272;9.580;2023-06-22T12:05:05;27.80;99.90
21167;DHT22;10741;52.272;9.580;2023-06-22T12:07:31;27.70;99.90
21167;DHT22;10741;52.272;9.580;2023-06-22T12:09:57;27.70;99.90
21167;DHT22;10741;52.272;9.580;2023-06-22T12:12:23;27.50;99.90
21167;DHT22;10741;52.272;9.580;2023-06-22T12:14:48;27.50;99.90
21167;DHT22;10741;52.272;9.580;2023-06-22T12:17:14;27.20;99.90
21167;DHT22;10741;52.272;9.580;2023-06-22T12:19:40;27.10;99.90
21167;DHT22;10741;52.272;9.580;2023-06-22T12:22:06;26.90;99.90
21167;DHT22;10741;52.272;9.580;2023-06-22T12:24:31;26.90;99.90
21167;DHT22;10741;52.272;9.580;2023-06-22T12:26:57;26.70;99.90
21167;DHT22;10741;52.272;9.580;2023-06-22T12:29:23;26.70;99.90
21167;DHT22;10741;52.272;9.580;2023-06-22T12:31:48;26.70;99.90
21167;DHT22;10741;52.272;9.580;2023-06-22T12:34:14;26.70;99.90
21167;DHT22;10741;52.272;9.580;2023-06-22T12:36:40;26.80;99.90
21167;DHT22;10741;52.272;9.580;2023-06-22T12:39:06;26.80;99.90
21167;DHT22;10741;52.272;9.580;2023-06-22T12:41:32;26.70;99.90
21167;DHT22;10741;52.272;9.580;2023-06-22T12:43:57;26.60;99.90
21167;DHT22;10741;52.272;9.580;2023-06-22T12:46:23;26.50;99.90
21167;DHT22;10741;52.272;9.580;2023-06-22T12:48:49;26.40;99.90
21167;DHT22;10741;52.272;9.580;2023-06-22T12:51:21;26.20;99.90
21167;DHT22;10741;52.272;9.580;2023-06-22T12:53:47;26.20;99.90
21167;DHT22;10741;52.272;9.580;2023-06-22T12:56:13;26.10;99.90
21167;DHT22;10741;52.272;9.580;2023-06-22T12:58:39;26.00;99.90
21167;DHT22;10741;52.272;9.580;2023-06-22T13:01:04;25.90;99.90
21167;DHT22;10741;52.272;9.580;2023-06-22T13:03:30;25.80;99.90
21167;DHT22;10741;52.272;9.580;2023-06-22T13:05:56;25.60;99.90
21167;DHT22;10741;52.272;9.580;2023-06-22T13:08:21;25.40;99.90
21167;DHT22;10741;52.272;9.580;2023-06-22T13:10:47;25.30;99.90
21167;DHT22;10741;52.272;9.580;2023-06-22T13:13:13;25.30;99.90
21167;DHT22;10741;52.272;9.580;2023-06-22T13:15:38;25.30;99.90
21167;DHT22;10741;52.272;9.580;2023-06-22T13:18:04;25.30;99.90
21167;DHT22;10741;52.272;9.580;2023-06-22T13:20:30;25.40;99.90
21167;DHT22;10741;52.272;9.580;2023-06-22T13:22:56;25.50;99.90
21167;DHT22;10741;52.272;9.580;2023-06-22T13:25:22;25.40;99.90
21167;DHT22;10741;52.272;9.580;2023-06-22T13:27:51;25.50;99.90
21167;DHT22;10741;52.272;9.580;2023-06-22T13:30:17;25.60;99.90
21167;DHT22;10741;52.272;9.580;2023-06-22T13:32:43;25.60;99.90
21167;DHT22;10741;52.272;9.580;2023-06-22T13:35:10;25.60;99.90
21167;DHT22;10741;52.272;9.580;2023-06-22T13:37:36;25.60;99.90
21167;DHT22;10741;52.272;9.580;2023-06-22T13:40:02;25.60;99.90
21167;DHT22;10741;52.272;9.580;2023-06-22T13:42:31;25.60;99.90
21167;DHT22;10741;52.272;9.580;2023-06-22T13:44:56;25.60;99.90
21167;DHT22;10741;52.272;9.580;2023-06-22T13:47:22;25.60;99.90
21167;DHT22;10741;52.272;9.580;2023-06-22T13:49:48;25.50;99.90
21167;DHT22;10741;52.272;9.580;2023-06-22T13:52:13;25.40;99.90
21167;DHT22;10741;52.272;9.580;2023-06-22T13:54:39;25.30;99.90
21167;DHT22;10741;52.272;9.580;2023-06-22T13:57:05;25.10;99.90
21167;DHT22;10741;52.272;9.580;2023-06-22T13:59:31;25.00;99.90
21167;DHT22;10741;52.272;9.580;2023-06-22T14:01:57;24.80;99.90
21167;DHT22;10741;52.272;9.580;2023-06-22T14:04:25;24.60;99.90
21167;DHT22;10741;52.272;9.580;2023-06-22T14:06:51;24.50;99.90
21167;DHT22;10741;52.272;9.580;2023-06-22T14:09:17;24.30;99.90
21167;DHT22;10741;52.272;9.580;2023-06-22T14:11:42;24.20;99.90
21167;DHT22;10741;52.272;9.580;2023-06-22T14:14:08;24.20;99.90
21167;DHT22;10741;52.272;9.580;2023-06-22T14:16:34;24.20;99.90
21167;DHT22;10741;52.272;9.580;2023-06-22T14:19:00;24.20;99.90
21167;DHT22;10741;52.272;9.580;2023-06-22T14:21:26;24.20;99.90
21167;DHT22;10741;52.272;9.580;2023-06-22T14:23:52;24.10;99.90
21167;DHT22;10741;52.272;9.580;2023-06-22T14:26:18;24.10;99.90
21167;DHT22;10741;52.272;9.580;2023-06-22T14:28:47;24.10;99.90
21167;DHT22;10741;52.272;9.580;2023-06-22T14:31:17;24.00;99.90
21167;DHT22;10741;52.272;9.580;2023-06-22T14:33:52;24.00;99.90
21167;DHT22;10741;52.272;9.580;2023-06-22T14:36:18;24.00;99.90
21167;DHT22;10741;52.272;9.580;2023-06-22T14:38:44;23.90;99.90
21167;DHT22;10741;52.272;9.580;2023-06-22T14:41:09;23.80;99.90
21167;DHT22;10741;52.272;9.580;2023-06-22T14:43:35;23.80;99.90
21167;DHT22;10741;52.272;9.580;2023-06-22T14:46:01;23.70;99.90
21167;DHT22;10741;52.272;9.580;2023-06-22T14:48:27;23.60;99.90
21167;DHT22;10741;52.272;9.580;2023-06-22T14:50:53;23.40;99.90
21167;DHT22;10741;52.272;9.580;2023-06-22T14:53:19;23.30;99.90
21167;DHT22;10741;52.272;9.580;2023-06-22T14:55:45;23.20;99.90
21167;DHT22;10741;52.272;9.580;2023-06-22T14:58:11;23.10;99.90
21167;DHT22;10741;52.272;9.580;2023-06-22T15:00:37;23.10;99.90
21167;DHT22;10741;52.272;9.580;2023-06-22T15:03:04;23.00;99.90
21167;DHT22;10741;52.272;9.580;2023-06-22T15:05:32;22.90;99.90
21167;DHT22;10741;52.272;9.580;2023-06-22T15:07:58;22.50;99.90
21167;DHT22;10741;52.272;9.580;2023-06-22T15:10:24;22.30;99.90
21167;DHT22;10741;52.272;9.580;2023-06-22T15:12:50;22.20;99.90
21167;DHT22;10741;52.272;9.580;2023-06-22T15:15:15;22.10;99.90
21167;DHT22;10741;52.272;9.580;2023-06-22T15:17:41;22.00;99.90
21167;DHT22;10741;52.272;9.580;2023-06-22T15:20:07;21.90;99.90
21167;DHT22;10741;52.272;9.580;2023-06-22T15:22:33;21.80;99.90
21167;DHT22;10741;52.272;9.580;2023-06-22T15:24:59;21.80;99.90
21167;DHT22;10741;52.272;9.580;2023-06-22T15:27:25;21.70;99.90
21167;DHT22;10741;52.272;9.580;2023-06-22T15:29:50;21.60;99.90